Time;durP1;ratioP1;P1;durP2;ratioP2;P2;SDS_P1;SDS_P2;PMS_P1;PMS_P2;Temp;Humidity;BMP_temperature;BMP_pressure;BME280_temperature;BME280_humidity;BME280_pressure;Samples;Min_cycle;Max_cycle;Signal;HPM_P1;HPM_P2
2023/01/01 00:01:21;;;;;;;16.58;13.25;;;;;;;22.18;53.05;96336.53;4971402;28;20116;-63
2023/01/01 00:03:53;;;;;;;16.15;13.52;;;;;;;21.92;52.90;96290.56;4988801;28;20168;-62
2023/01/01 00:06:19;;;;;;;16.17;13.45;;;;;;;22.05;53.63;96322.44;4992298;28;20054;-63
2023/01/01 00:08:45;;;;;;;17.75;14.20;;;;;;;22.11;53.70;96326.00;4995037;28;20418;-61
2023/01/01 00:11:11;;;;;;;15.93;13.52;;;;;;;22.18;53.04;96339.25;4987649;28;20287;-62
2023/01/01 00:13:37;;;;;;;16.95;14.15;;;;;;;22.20;53.75;96339.50;4987959;28;20100;-62
2023/01/01 00:16:07;;;;;;;18.67;15.25;;;;;;;21.34;53.34;96238.81;4988197;28;20415;-63
2023/01/01 00:18:32;;;;;;;17.88;14.85;;;;;;;21.82;53.66;96308.16;4991503;28;20041;-61
2023/01/01 00:21:08;;;;;;;18.35;15.52;;;;;;;20.73;53.58;96153.94;5020308;28;20069;-61
2023/01/01 00:23:33;;;;;;;17.58;14.82;;;;;;;21.23;53.53;96235.88;4988225;28;20482;-63
2023/01/01 00:25:59;;;;;;;21.52;16.40;;;;;;;21.92;54.20;96350.38;4988322;28;20061;-63
2023/01/01 00:28:24;;;;;;;18.33;15.60;;;;;;;21.83;54.46;96331.44;4986977;28;20161;-61
2023/01/01 00:30:50;;;;;;;19.75;16.70;;;;;;;21.92;54.22;96350.38;4996709;28;20053;-62
2023/01/01 00:33:15;;;;;;;19.48;15.57;;;;;;;21.86;53.43;96346.81;4989121;28;20043;-61
2023/01/01 00:35:41;;;;;;;20.02;15.95;;;;;;;21.79;54.12;96353.34;5003987;28;20199;-61
2023/01/01 00:38:06;;;;;;;19.95;16.48;;;;;;;21.07;53.39;96244.44;4989338;28;20041;-62
2023/01/01 00:40:32;;;;;;;20.27;16.42;;;;;;;21.78;53.57;96348.38;4996357;28;20047;-60
2023/01/01 00:42:57;;;;;;;19.55;16.35;;;;;;;21.12;54.31;96241.13;4987169;28;20042;-61
2023/01/01 00:45:22;;;;;;;20.50;17.17;;;;;;;21.65;54.03;96337.03;4986844;28;20513;-62
2023/01/01 00:47:51;;;;;;;22.13;17.23;;;;;;;21.72;53.88;96348.28;4987145;28;20100;-63
2023/01/01 00:50:17;;;;;;;19.42;17.23;;;;;;;21.39;53.62;96325.13;4988578;28;20042;-62
2023/01/01 00:52:43;;;;;;;20.75;17.40;;;;;;;21.66;53.71;96355.59;4958957;28;20446;-62
2023/01/01 00:55:09;;;;;;;23.33;17.70;;;;;;;21.67;54.08;96356.31;4987695;28;20395;-62
2023/01/01 00:57:34;;;;;;;23.55;18.88;;;;;;;21.66;54.15;96355.59;4986974;28;20054;-62
2023/01/01 01:00:00;;;;;;;22.17;18.33;;;;;;;21.61;53.56;96358.19;4997804;28;20530;-62
2023/01/01 01:02:25;;;;;;;21.15;18.50;;;;;;;21.61;53.56;96358.19;4987784;28;20038;-62
2023/01/01 01:04:50;;;;;;;22.30;17.95;;;;;;;21.56;54.16;96350.69;4987792;28;20061;-61
2023/01/01 01:07:16;;;;;;;23.17;18.67;;;;;;;21.55;53.43;96346.44;4986981;28;20081;-61
2023/01/01 01:09:41;;;;;;;24.38;19.65;;;;;;;21.56;53.72;96353.41;4986214;28;20927;-62
2023/01/01 01:12:07;;;;;;;25.70;19.95;;;;;;;21.57;53.94;96341.31;5021194;28;20479;-63
2023/01/01 01:14:32;;;;;;;23.85;19.88;;;;;;;21.00;53.22;96271.97;4986326;28;20045;-62
2023/01/01 01:16:58;;;;;;;24.70;20.38;;;;;;;21.19;53.96;96300.50;4986331;28;20043;-62
2023/01/01 01:19:25;;;;;;;25.60;20.60;;;;;;;21.50;53.54;96342.41;4986109;28;20049;-61
2023/01/01 01:21:51;;;;;;;23.75;20.13;;;;;;;20.79;53.70;96244.34;4986883;28;20046;-61
2023/01/01 01:24:16;;;;;;;25.55;20.60;;;;;;;21.43;53.58;96358.28;4988615;28;20053;-61
2023/01/01 01:26:42;;;;;;;26.33;20.90;;;;;;;21.43;53.07;96337.31;4987235;28;20031;-61
2023/01/01 01:29:07;;;;;;;25.02;21.05;;;;;;;21.47;52.97;96337.16;4989931;28;20038;-61
2023/01/01 01:31:33;;;;;;;28.73;21.88;;;;;;;21.45;53.15;96345.00;4986974;28;20483;-62
2023/01/01 01:33:59;;;;;;;25.60;21.58;;;;;;;21.34;53.24;96323.03;4986033;28;20038;-62
2023/01/01 01:36:24;;;;;;;26.85;22.15;;;;;;;21.40;53.31;96342.91;4986874;28;20042;-61
2023/01/01 01:38:50;;;;;;;28.20;23.08;;;;;;;20.89;53.27;96259.38;4987286;28;20143;-62
2023/01/01 01:41:17;;;;;;;29.77;23.55;;;;;;;21.36;52.65;96347.78;4986063;28;20042;-63
2023/01/01 01:43:43;;;;;;;29.23;22.92;;;;;;;21.51;52.70;96348.63;4986688;28;20054;-62
2023/01/01 01:46:22;;;;;;;29.38;23.25;;;;;;;21.44;52.61;96338.81;4989029;28;20054;-62
2023/01/01 01:48:49;;;;;;;28.83;23.50;;;;;;;21.37;52.94;96326.78;4985844;28;20100;-62
2023/01/01 01:51:21;;;;;;;29.73;23.95;;;;;;;20.67;52.96;96242.59;4985533;28;20148;-62
2023/01/01 01:53:51;;;;;;;31.83;24.63;;;;;;;21.27;52.95;96345.13;4952185;28;20427;-62
2023/01/01 01:56:47;;;;;;;29.80;24.17;;;;;;;21.35;52.63;96335.41;4986676;28;20150;-62
2023/01/01 01:59:12;;;;;;;29.33;24.88;;;;;;;21.27;52.67;96333.50;4988613;28;20136;-61
2023/01/01 02:01:38;;;;;;;30.63;25.25;;;;;;;21.38;52.63;96339.91;4998985;28;20046;-63
2023/01/01 02:04:04;;;;;;;31.90;25.60;;;;;;;21.27;52.45;96328.84;4984436;28;20097;-62
2023/01/01 02:06:30;;;;;;;32.38;26.27;;;;;;;21.14;52.67;96328.31;4985352;28;20046;-62
2023/01/01 02:08:56;;;;;;;32.55;25.48;;;;;;;21.10;52.60;96319.56;4984173;28;20077;-61
2023/01/01 02:11:21;;;;;;;33.65;27.35;;;;;;;21.30;52.72;96346.94;4980285;28;20491;-62
2023/01/01 02:13:46;;;;;;;33.30;26.35;;;;;;;21.27;52.18;96361.44;4979149;28;20111;-61
2023/01/01 02:16:30;;;;;;;33.13;27.05;;;;;;;21.35;52.29;96368.00;4984120;28;20057;-62
2023/01/01 02:19:07;;;;;;;36.15;27.73;;;;;;;21.37;52.12;96353.97;4985476;28;20141;-61
2023/01/01 02:21:43;;;;;;;34.75;27.35;;;;;;;21.36;52.04;96380.41;4986132;28;20042;-61
2023/01/01 02:24:37;;;;;;;34.53;28.58;;;;;;;21.33;51.95;96359.59;5017262;28;20049;-62
2023/01/01 02:27:05;;;;;;;35.60;28.30;;;;;;;20.56;52.19;96247.78;4997573;28;20181;-67
2023/01/01 02:29:44;;;;;;;35.78;28.80;;;;;;;21.27;52.26;96349.78;4982825;28;20076;-61
2023/01/01 02:32:27;;;;;;;35.72;29.75;;;;;;;21.28;52.10;96357.47;4985586;28;20104;-61
2023/01/01 02:35:33;;;;;;;35.50;29.33;;;;;;;21.28;52.13;96349.34;5000100;28;20092;-61
2023/01/01 02:38:03;;;;;;;36.20;29.60;;;;;;;21.18;51.89;96337.03;4980788;28;20034;-61
2023/01/01 02:40:28;;;;;;;37.97;30.27;;;;;;;21.26;52.21;96354.50;5028684;28;20076;-61
2023/01/01 02:42:53;;;;;;;35.90;30.42;;;;;;;21.16;52.34;96344.88;4987924;28;20499;-62
2023/01/01 02:45:19;;;;;;;36.92;30.00;;;;;;;21.20;51.93;96350.91;4967900;28;20427;-62
2023/01/01 02:47:44;;;;;;;38.88;30.88;;;;;;;21.20;51.70;96334.59;4982387;28;20034;-62
2023/01/01 02:50:15;;;;;;;36.95;30.15;;;;;;;21.30;51.57;96343.44;4993115;28;20038;-62
2023/01/01 02:52:55;;;;;;;37.40;30.50;;;;;;;20.57;51.56;96238.44;4984108;28;20523;-61
2023/01/01 02:55:26;;;;;;;39.42;31.25;;;;;;;21.22;51.68;96343.03;4984776;28;20117;-61
2023/01/01 03:01:47;;;;;;;37.33;30.70;;;;;;;21.20;51.46;96344.72;4970055;28;20101;-60
2023/01/01 03:04:17;;;;;;;39.17;31.35;;;;;;;21.15;52.03;96326.34;4982681;28;20069;-62
2023/01/01 03:07:00;;;;;;;40.42;32.47;;;;;;;21.28;51.44;96338.47;5016263;28;20046;-61
2023/01/01 03:09:29;;;;;;;41.47;33.17;;;;;;;21.27;51.33;96339.69;4973953;28;20049;-62
2023/01/01 03:12:17;;;;;;;41.92;32.90;;;;;;;21.23;51.66;96339.13;4984959;28;20046;-62
2023/01/01 03:14:52;;;;;;;39.88;32.20;;;;;;;21.21;51.73;96340.78;5016592;28;20120;-61
2023/01/01 03:17:21;;;;;;;41.67;32.22;;;;;;;21.17;51.47;96346.41;4984689;28;20102;-62
2023/01/01 03:19:46;;;;;;;42.25;34.17;;;;;;;20.98;51.22;96317.88;4984773;28;20050;-61
2023/01/01 03:22:15;;;;;;;43.22;33.88;;;;;;;21.16;51.55;96344.88;4983686;28;20062;-63
2023/01/01 03:24:53;;;;;;;44.90;34.58;;;;;;;19.93;51.07;96157.13;4984983;28;20244;-61
2023/01/01 03:27:29;;;;;;;38.60;32.05;;;;;;;21.19;51.20;96349.38;5000750;28;20120;-61
2023/01/01 03:29:55;;;;;;;43.42;34.60;;;;;;;21.07;51.46;96325.19;4994264;28;20054;-61
2023/01/01 03:32:59;;;;;;;40.70;34.28;;;;;;;20.95;51.65;96306.41;4983647;28;20042;-61
2023/01/01 03:35:12;;;;;;;41.42;34.08;;;;;;;21.14;51.05;96336.44;4970838;28;20533;-61
2023/01/01 03:37:38;;;;;;;45.17;35.70;;;;;;;21.09;51.09;96334.38;5017669;28;20039;-61
2023/01/01 03:40:04;;;;;;;47.88;36.10;;;;;;;20.99;50.88;96311.19;5025684;28;20493;-62
2023/01/01 03:42:44;;;;;;;44.53;35.08;;;;;;;21.19;50.93;96346.69;4990659;28;20053;-62
2023/01/01 03:45:19;;;;;;;44.03;36.13;;;;;;;21.15;51.27;96348.06;4986405;28;20058;-61
2023/01/01 03:47:45;;;;;;;43.40;35.85;;;;;;;21.07;51.27;96331.34;4976893;28;20373;-63
2023/01/01 03:50:10;;;;;;;44.25;34.92;;;;;;;21.08;51.24;96327.44;4990207;28;20049;-61
2023/01/01 03:53:02;;;;;;;44.88;35.67;;;;;;;21.20;50.91;96345.47;4982980;28;20113;-63
2023/01/01 03:55:31;;;;;;;45.35;35.33;;;;;;;21.23;50.91;96338.38;4980741;28;20043;-61
2023/01/01 03:58:10;;;;;;;44.00;36.88;;;;;;;21.19;50.90;96338.53;5016394;28;20100;-62
2023/01/01 04:00:45;;;;;;;45.38;36.25;;;;;;;21.04;51.22;96332.28;4985511;28;20058;-62
2023/01/01 04:03:21;;;;;;;47.30;36.88;;;;;;;20.41;51.07;96236.13;5003531;28;20061;-61
2023/01/01 04:05:46;;;;;;;48.03;37.50;;;;;;;21.04;51.30;96337.72;5019040;28;20026;-62
2023/01/01 04:08:12;;;;;;;45.08;35.95;;;;;;;21.15;51.17;96354.25;4956882;28;20538;-61
2023/01/01 04:10:41;;;;;;;45.10;36.50;;;;;;;21.10;50.49;96341.28;4982105;28;20099;-60
2023/01/01 04:13:06;;;;;;;44.58;36.05;;;;;;;21.12;51.02;96338.13;4981803;28;20061;-63
2023/01/01 04:15:32;;;;;;;45.05;37.72;;;;;;;20.34;50.76;96225.59;4984619;28;20050;-62
2023/01/01 04:17:57;;;;;;;45.25;36.92;;;;;;;21.11;50.88;96342.06;4950616;28;20487;-61
2023/01/01 04:20:23;;;;;;;44.90;36.80;;;;;;;21.08;51.11;96343.72;4986864;28;20482;-61
2023/01/01 04:22:48;;;;;;;45.67;36.78;;;;;;;21.06;50.77;96346.16;4989152;28;20046;-62
2023/01/01 04:25:14;;;;;;;49.20;37.90;;;;;;;20.81;50.88;96304.38;4988597;28;20100;-63
2023/01/01 04:27:39;;;;;;;45.78;38.45;;;;;;;21.17;50.21;96357.25;4968431;28;20053;-61
2023/01/01 04:30:07;;;;;;;48.15;38.53;;;;;;;21.03;50.69;96332.75;4990516;28;20046;-61
2023/01/01 04:32:33;;;;;;;48.35;38.88;;;;;;;21.07;50.61;96347.66;4988910;28;20026;-61
2023/01/01 04:34:58;;;;;;;50.22;39.42;;;;;;;21.09;50.78;96356.13;4987984;28;20038;-62
2023/01/01 04:37:24;;;;;;;48.70;38.47;;;;;;;20.75;50.75;96317.09;4987669;28;20525;-62
2023/01/01 04:39:49;;;;;;;47.72;38.78;;;;;;;21.13;50.73;96351.25;4987592;28;20049;-62
2023/01/01 04:42:14;;;;;;;49.97;39.00;;;;;;;20.93;50.23;96314.28;5019835;28;20423;-62
2023/01/01 04:44:40;;;;;;;47.90;37.45;;;;;;;20.59;50.43;96265.88;4987453;28;20738;-61
2023/01/01 04:47:05;;;;;;;48.33;39.10;;;;;;;21.04;50.69;96343.13;4987325;28;20038;-61
2023/01/01 04:49:31;;;;;;;51.50;39.67;;;;;;;21.03;50.54;96362.63;4990684;28;20531;-62
2023/01/01 04:51:56;;;;;;;49.50;39.08;;;;;;;20.72;50.25;96293.59;4987753;28;20050;-62
2023/01/01 04:54:22;;;;;;;50.42;39.88;;;;;;;21.03;50.54;96349.81;4985879;28;20129;-62
2023/01/01 04:56:47;;;;;;;50.30;40.15;;;;;;;21.09;50.94;96345.25;5018506;28;20041;-61
2023/01/01 04:59:12;;;;;;;49.60;39.17;;;;;;;20.49;50.11;96275.25;4986634;28;20381;-62
2023/01/01 05:01:38;;;;;;;47.90;39.03;;;;;;;20.35;50.01;96240.66;4985757;28;20038;-62
2023/01/01 05:04:03;;;;;;;50.17;40.05;;;;;;;21.22;50.36;96359.34;4984703;28;20089;-61
2023/01/01 05:06:29;;;;;;;49.20;39.17;;;;;;;21.16;50.08;96361.19;4985881;28;20038;-61
2023/01/01 05:08:55;;;;;;;49.17;38.97;;;;;;;21.24;50.36;96402.34;4986591;28;20529;-62
2023/01/01 05:11:21;;;;;;;48.78;40.40;;;;;;;21.21;50.33;96368.72;4987300;28;20518;-61
2023/01/01 05:13:48;;;;;;;50.25;40.38;;;;;;;20.36;50.29;96239.47;4985918;28;20533;-61
2023/01/01 05:16:16;;;;;;;48.47;39.33;;;;;;;21.13;50.62;96367.53;5014690;28;20050;-61
2023/01/01 05:18:42;;;;;;;51.42;40.75;;;;;;;21.12;50.35;96381.56;4985768;28;20090;-62
2023/01/01 05:21:10;;;;;;;48.75;39.45;;;;;;;20.46;50.57;96265.31;4986075;28;20039;-61
2023/01/01 05:23:35;;;;;;;49.40;40.45;;;;;;;21.00;50.81;96342.59;4986147;28;20038;-60
2023/01/01 05:26:17;;;;;;;50.65;40.85;;;;;;;21.16;50.45;96361.19;4986170;28;20038;-63
2023/01/01 05:28:42;;;;;;;50.03;40.38;;;;;;;20.57;50.38;96304.31;4997965;28;20031;-61
2023/01/01 05:31:12;;;;;;;50.78;40.58;;;;;;;21.12;50.66;96371.47;4982694;28;20050;-61
2023/01/01 05:33:37;;;;;;;50.75;40.15;;;;;;;21.06;50.10;96357.03;4987763;28;20045;-61
2023/01/01 05:36:03;;;;;;;49.88;40.05;;;;;;;21.08;50.31;96370.88;4982859;28;20515;-61
2023/01/01 05:38:29;;;;;;;49.83;39.97;;;;;;;20.40;49.93;96261.72;4984976;28;20041;-62
2023/01/01 05:40:55;;;;;;;50.20;40.83;;;;;;;21.11;50.61;96369.97;4984433;28;20042;-61
2023/01/01 05:43:20;;;;;;;51.03;40.72;;;;;;;20.47;50.62;96276.94;4985846;28;20127;-61
2023/01/01 05:45:45;;;;;;;48.63;40.17;;;;;;;20.73;50.51;96317.56;4985088;28;20773;-61
2023/01/01 05:48:11;;;;;;;51.20;40.97;;;;;;;21.11;50.36;96375.41;4984426;28;20038;-65
2023/01/01 05:50:36;;;;;;;50.35;40.78;;;;;;;21.00;50.50;96358.88;4984266;28;20046;-61
2023/01/01 05:53:02;;;;;;;49.53;39.75;;;;;;;20.93;50.53;96368.59;4983323;28;20041;-61
2023/01/01 05:55:27;;;;;;;49.03;39.28;;;;;;;21.07;50.55;96374.81;5016231;28;20128;-62
2023/01/01 05:57:53;;;;;;;51.22;39.85;;;;;;;19.83;49.94;96180.00;4983784;28;20093;-62
2023/01/01 06:00:18;;;;;;;49.22;39.50;;;;;;;21.03;49.84;96360.66;4986591;28;20426;-62
2023/01/01 06:02:44;;;;;;;51.38;41.05;;;;;;;21.14;50.56;96379.91;4985375;28;20494;-61
2023/01/01 06:05:09;;;;;;;49.72;40.38;;;;;;;20.96;50.23;96367.66;4984194;28;20046;-62
2023/01/01 06:07:34;;;;;;;51.72;40.50;;;;;;;20.87;50.16;96370.41;4985106;28;20042;-61
2023/01/01 06:10:00;;;;;;;49.38;41.25;;;;;;;21.09;50.30;96394.13;4982953;28;20287;-61
2023/01/01 06:12:25;;;;;;;50.88;41.05;;;;;;;21.10;50.25;96384.00;5016623;28;20435;-62
2023/01/01 06:14:51;;;;;;;48.85;38.83;;;;;;;20.75;49.89;96325.97;4984751;28;20026;-61
2023/01/01 06:17:16;;;;;;;51.33;40.53;;;;;;;21.06;50.08;96364.41;4984673;28;20026;-62
2023/01/01 06:19:42;;;;;;;50.72;40.05;;;;;;;20.57;50.13;96303.56;4984415;28;20123;-60
2023/01/01 06:22:07;;;;;;;50.22;40.88;;;;;;;21.10;50.06;96384.75;4979965;28;20108;-61
2023/01/01 06:24:32;;;;;;;50.75;40.47;;;;;;;21.04;50.29;96364.88;4985649;28;20058;-62
2023/01/01 06:26:58;;;;;;;48.28;38.40;;;;;;;21.30;49.92;96393.09;4985311;28;20034;-60
2023/01/01 06:29:23;;;;;;;49.85;40.15;;;;;;;21.17;49.94;96372.81;4984649;28;20037;-61
2023/01/01 06:31:49;;;;;;;52.47;40.90;;;;;;;21.31;50.04;96389.16;4983959;28;20034;-61
2023/01/01 06:34:14;;;;;;;52.65;39.65;;;;;;;20.71;50.58;96302.94;4986540;28;20068;-61
2023/01/01 06:36:39;;;;;;;50.33;40.30;;;;;;;20.92;49.99;96318.19;4989264;28;20054;-61
2023/01/01 06:39:05;;;;;;;52.03;41.38;;;;;;;21.42;48.40;96345.94;4989084;28;20116;-61
2023/01/01 06:41:30;;;;;;;52.20;40.90;;;;;;;22.03;48.55;96416.59;4990234;28;20035;-63
2023/01/01 06:43:56;;;;;;;48.20;38.72;;;;;;;22.03;48.20;96395.59;4972278;28;20396;-60
2023/01/01 06:46:32;;;;;;;48.38;39.22;;;;;;;22.23;48.28;96403.91;4988154;28;20069;-61
2023/01/01 06:48:59;;;;;;;46.53;36.85;;;;;;;22.35;47.73;96411.03;4981409;28;20041;-61
2023/01/01 06:51:29;;;;;;;48.42;38.35;;;;;;;22.23;47.84;96390.31;4987218;28;20057;-61
2023/01/01 06:53:57;;;;;;;49.10;38.13;;;;;;;22.23;47.75;96392.28;5014968;28;20089;-61
2023/01/01 06:56:23;;;;;;;47.72;39.25;;;;;;;22.44;47.93;96419.13;4985951;28;20109;-62
2023/01/01 06:58:48;;;;;;;49.17;39.90;;;;;;;22.49;47.94;96410.28;4983819;28;20122;-59
2023/01/01 07:01:18;;;;;;;49.00;39.97;;;;;;;22.64;48.13;96427.38;4984835;28;20042;-60
2023/01/01 07:03:48;;;;;;;47.92;38.53;;;;;;;22.60;47.80;96424.09;4984729;28;20039;-61
2023/01/01 07:06:13;;;;;;;50.60;40.08;;;;;;;22.72;48.01;96444.84;4985047;28;20050;-61
2023/01/01 07:08:39;;;;;;;48.60;39.50;;;;;;;21.99;47.23;96307.25;4985376;28;20045;-60
2023/01/01 07:11:04;;;;;;;47.90;38.55;;;;;;;22.71;47.37;96405.22;4999920;28;20034;-61
2023/01/01 07:13:30;;;;;;;45.83;37.58;;;;;;;22.73;47.07;96403.50;5016894;28;20042;-61
2023/01/01 07:15:55;;;;;;;48.30;39.55;;;;;;;22.89;46.86;96450.09;4975865;28;20042;-62
2023/01/01 07:18:22;;;;;;;49.65;39.85;;;;;;;22.53;47.18;96372.75;4982824;28;20133;-62
2023/01/01 07:20:54;;;;;;;48.80;38.20;;;;;;;22.94;47.25;96424.94;4984784;28;20061;-61
2023/01/01 07:23:20;;;;;;;48.13;39.72;;;;;;;22.79;46.35;96403.59;4983868;28;20459;-61
2023/01/01 07:25:47;;;;;;;47.00;38.50;;;;;;;22.96;46.48;96422.50;4983607;28;20061;-62
2023/01/01 07:28:13;;;;;;;48.85;39.13;;;;;;;23.02;46.29;96428.78;4984451;28;20042;-63
2023/01/01 07:30:38;;;;;;;50.92;39.45;;;;;;;23.16;46.32;96425.25;4985117;28;20277;-61
2023/01/01 07:33:04;;;;;;;46.60;37.83;;;;;;;22.76;45.77;96355.53;4984326;28;20050;-60
2023/01/01 07:35:29;;;;;;;45.45;37.00;;;;;;;23.23;45.54;96408.53;4985053;28;20162;-60
2023/01/01 07:37:54;;;;;;;44.13;37.78;;;;;;;23.41;45.35;96446.44;4984234;28;20057;-60
2023/01/01 07:40:20;;;;;;;43.75;37.28;;;;;;;23.53;45.82;96426.28;4983154;28;20486;-60
2023/01/01 07:42:45;;;;;;;47.88;38.33;;;;;;;23.69;45.83;96428.50;4982961;28;20400;-60
2023/01/01 07:45:11;;;;;;;47.08;37.78;;;;;;;23.73;45.94;96418.13;4984890;28;20718;-60
2023/01/01 07:47:37;;;;;;;45.78;36.83;;;;;;;23.87;45.58;96429.72;5014919;28;20069;-60
2023/01/01 07:50:02;;;;;;;46.50;37.85;;;;;;;23.95;45.38;96441.72;4990419;28;20066;-60
2023/01/01 07:52:28;;;;;;;45.72;37.08;;;;;;;23.95;45.10;96424.59;4984252;28;20054;-59
2023/01/01 07:54:53;;;;;;;44.63;37.55;;;;;;;23.87;45.67;96402.44;4984340;28;20115;-59
2023/01/01 07:57:18;;;;;;;42.55;36.55;;;;;;;23.94;45.36;96395.81;4988462;28;21015;-59
2023/01/01 07:59:44;;;;;;;43.58;35.95;;;;;;;23.86;45.02;96361.25;4988847;28;20034;-60
2023/01/01 08:02:11;;;;;;;45.13;36.85;;;;;;;24.14;44.74;96410.19;4985234;28;20506;-60
2023/01/01 08:04:37;;;;;;;43.45;37.80;;;;;;;24.24;43.99;96418.97;5019820;28;20173;-60
2023/01/01 08:07:02;;;;;;;45.90;37.65;;;;;;;24.43;44.55;96437.31;4986920;28;20058;-60
2023/01/01 08:09:27;;;;;;;45.03;37.92;;;;;;;24.49;44.34;96440.84;4987123;28;20042;-59
2023/01/01 08:11:53;;;;;;;44.58;37.00;;;;;;;24.19;44.28;96395.84;4988516;28;20046;-60
2023/01/01 08:14:18;;;;;;;45.70;37.33;;;;;;;24.48;43.78;96417.50;4988195;28;20039;-59
2023/01/01 08:16:44;;;;;;;43.38;36.88;;;;;;;24.35;43.81;96414.41;4985602;28;20042;-60
2023/01/01 08:19:09;;;;;;;45.53;37.08;;;;;;;24.68;43.34;96458.41;5017729;28;20132;-60
2023/01/01 08:21:35;;;;;;;45.92;36.85;;;;;;;24.76;43.21;96437.63;4985370;28;20046;-60
2023/01/01 08:24:00;;;;;;;43.97;36.83;;;;;;;24.20;43.72;96364.59;4986495;28;20038;-59
2023/01/01 08:26:30;;;;;;;46.50;37.63;;;;;;;24.74;43.26;96446.31;4986520;28;20053;-60
2023/01/01 08:28:55;;;;;;;;;;;;;;;24.68;43.87;96442.00;5017869;28;20046;-59
2023/01/01 08:31:21;;;;;;;43.88;36.22;;;;;;;24.80;43.10;96443.59;4986974;28;19952;-61
2023/01/01 08:33:47;;;;;;;44.35;36.92;;;;;;;24.85;43.31;96425.28;4985498;28;20070;-60
2023/01/01 08:36:12;;;;;;;42.63;37.92;;;;;;;24.95;42.72;96440.28;4986739;28;20105;-60
2023/01/01 08:38:38;;;;;;;43.95;37.33;;;;;;;24.52;42.67;96357.94;5017790;28;20042;-61
2023/01/01 08:41:03;;;;;;;42.45;36.20;;;;;;;25.00;42.54;96431.38;4985976;28;20030;-60
2023/01/01 08:43:28;;;;;;;41.58;36.38;;;;;;;25.14;42.45;96441.44;4987328;28;20050;-60
2023/01/01 08:45:54;;;;;;;43.83;37.00;;;;;;;25.10;42.21;96438.19;5017979;28;20058;-61
2023/01/01 08:48:19;;;;;;;43.38;37.47;;;;;;;25.09;42.21;96422.25;4986372;28;20050;-60
2023/01/01 08:50:54;;;;;;;40.03;34.40;;;;;;;25.22;42.05;96425.34;4986500;28;20489;-60
2023/01/01 08:53:19;;;;;;;44.70;37.92;;;;;;;25.30;41.94;96465.41;5017396;28;20031;-60
2023/01/01 08:55:53;;;;;;;40.42;35.13;;;;;;;25.13;42.59;96439.19;4985823;28;20049;-61
2023/01/01 08:58:19;;;;;;;41.78;35.72;;;;;;;25.19;42.09;96416.13;4985087;28;20109;-61
2023/01/01 09:00:44;;;;;;;43.42;36.58;;;;;;;25.14;42.13;96429.75;4985795;28;20042;-60
2023/01/01 09:03:10;;;;;;;42.85;35.85;;;;;;;25.12;41.89;96438.44;4977131;28;20039;-60
2023/01/01 09:05:35;;;;;;;44.42;37.03;;;;;;;25.28;41.87;96435.06;4975179;28;20042;-60
2023/01/01 09:08:00;;;;;;;42.15;36.03;;;;;;;25.42;41.59;96417.75;4983039;28;20035;-61
2023/01/01 09:10:26;;;;;;;44.78;37.17;;;;;;;25.31;41.46;96412.22;4987114;28;20046;-60
2023/01/01 09:12:51;;;;;;;43.17;37.30;;;;;;;24.88;41.36;96369.66;4986989;28;20125;-60
2023/01/01 09:15:17;;;;;;;43.60;35.83;;;;;;;24.93;41.85;96354.53;5018948;28;20065;-60
2023/01/01 09:17:42;;;;;;;42.67;36.50;;;;;;;25.41;41.35;96410.78;4985810;28;20038;-58
2023/01/01 09:20:08;;;;;;;44.05;37.00;;;;;;;25.56;41.26;96411.34;4990246;28;20682;-61
2023/01/01 09:22:33;;;;;;;43.22;37.30;;;;;;;25.46;41.08;96379.97;4997086;28;20034;-61
2023/01/01 09:24:59;;;;;;;41.97;36.65;;;;;;;24.71;41.24;96298.97;4989837;28;20494;-61
2023/01/01 09:27:24;;;;;;;43.38;36.00;;;;;;;25.32;41.80;96391.84;4988501;28;20046;-61
2023/01/01 09:29:50;;;;;;;41.53;35.45;;;;;;;24.85;40.94;96307.78;4989085;28;20089;-60
2023/01/01 09:32:15;;;;;;;41.00;35.28;;;;;;;24.38;40.92;96216.84;4989394;28;20073;-59
2023/01/01 09:34:41;;;;;;;40.40;35.30;;;;;;;24.81;40.85;96281.16;4989625;28;20050;-59
2023/01/01 09:37:06;;;;;;;42.58;34.92;;;;;;;25.31;41.26;96363.72;4986548;28;20046;-60
2023/01/01 09:39:31;;;;;;;42.63;36.33;;;;;;;25.72;40.96;96386.09;4985564;28;20365;-59
2023/01/01 09:42:18;;;;;;;41.95;36.03;;;;;;;25.39;40.75;96374.97;4984636;28;20432;-61
2023/01/01 09:45:22;;;;;;;41.22;35.20;;;;;;;25.72;40.48;96380.63;5009579;28;20038;-61
2023/01/01 09:47:53;;;;;;;41.67;35.20;;;;;;;25.35;40.45;96358.03;4987471;28;20046;-61
2023/01/01 09:50:23;;;;;;;43.17;36.55;;;;;;;24.21;40.62;96152.41;5016311;28;20031;-61
2023/01/01 09:52:59;;;;;;;41.92;35.65;;;;;;;25.63;40.70;96356.91;4985566;28;20059;-61
2023/01/01 09:55:44;;;;;;;43.70;36.72;;;;;;;25.51;40.62;96382.00;5000184;28;20395;-60
2023/01/01 09:58:10;;;;;;;41.50;34.42;;;;;;;25.63;41.15;96373.31;5010577;28;20054;-60
2023/01/01 10:00:35;;;;;;;40.90;35.70;;;;;;;25.68;40.78;96374.63;4990962;28;20100;-61
2023/01/01 10:03:07;;;;;;;42.28;34.88;;;;;;;25.96;40.46;96368.00;4975229;28;20057;-62
2023/01/01 10:05:48;;;;;;;42.78;35.40;;;;;;;25.63;40.15;96372.59;4986937;28;20410;-63
2023/01/01 10:08:38;;;;;;;42.20;35.28;;;;;;;25.77;40.72;96371.66;4987252;28;20046;-61
2023/01/01 10:11:22;;;;;;;40.97;34.97;;;;;;;25.61;40.50;96369.59;4975748;28;20133;-61
2023/01/01 10:13:47;;;;;;;40.03;34.58;;;;;;;25.53;40.62;96358.38;5017443;28;20042;-61
2023/01/01 10:16:33;;;;;;;42.10;36.05;;;;;;;25.47;40.14;96370.50;4998416;28;20498;-61
2023/01/01 10:19:22;;;;;;;42.35;35.92;;;;;;;25.44;40.65;96355.84;4997100;28;20045;-62
2023/01/01 10:21:48;;;;;;;40.45;34.60;;;;;;;25.44;41.23;96360.56;5004407;28;21185;-61
2023/01/01 10:24:32;;;;;;;40.63;35.00;;;;;;;25.44;40.97;96357.81;4983460;28;20602;-61
2023/01/01 10:26:57;;;;;;;42.72;36.35;;;;;;;25.55;40.83;96357.88;4982462;28;20049;-61
2023/01/01 10:29:35;;;;;;;41.10;34.70;;;;;;;25.56;40.64;96351.16;4981332;28;20034;-60
2023/01/01 10:32:15;;;;;;;40.58;35.90;;;;;;;25.60;40.35;96349.69;4984108;28;20054;-60
2023/01/01 10:34:41;;;;;;;39.85;34.78;;;;;;;24.59;40.14;96210.03;4996782;28;20038;-60
2023/01/01 10:37:07;;;;;;;40.72;35.20;;;;;;;25.54;40.28;96337.22;4983620;28;20065;-61
2023/01/01 10:39:32;;;;;;;42.00;35.95;;;;;;;25.43;40.43;96340.66;4981984;28;20050;-61
2023/01/01 10:41:58;;;;;;;40.95;35.20;;;;;;;25.61;39.92;96336.78;4983994;28;20107;-60
2023/01/01 10:44:31;;;;;;;41.83;35.47;;;;;;;25.57;40.12;96326.03;4982342;28;20193;-60
2023/01/01 10:46:57;;;;;;;42.05;35.83;;;;;;;25.06;40.09;96270.91;4981928;28;20199;-59
2023/01/01 10:49:23;;;;;;;41.80;35.20;;;;;;;25.54;40.11;96327.03;4980773;28;20738;-60
2023/01/01 10:51:49;;;;;;;39.72;33.70;;;;;;;25.58;40.16;96315.88;5016016;28;20050;-60
2023/01/01 10:54:32;;;;;;;40.20;33.58;;;;;;;25.64;40.46;96313.91;4982200;28;20578;-60
2023/01/01 10:56:57;;;;;;;43.70;35.67;;;;;;;25.62;40.18;96299.94;5013427;28;20046;-60
2023/01/01 10:59:37;;;;;;;41.60;35.72;;;;;;;25.53;40.64;96291.97;4982294;28;20026;-60
2023/01/01 11:02:18;;;;;;;42.00;34.08;;;;;;;25.23;40.49;96236.19;4980357;28;20054;-59
2023/01/01 11:04:44;;;;;;;41.03;33.30;;;;;;;24.60;40.34;96118.66;4982714;28;20062;-60
2023/01/01 11:07:17;;;;;;;39.80;34.72;;;;;;;25.77;40.38;96290.34;4966042;28;20061;-60
2023/01/01 11:09:42;;;;;;;48.58;38.03;;;;;;;25.87;36.20;96292.34;4997548;28;20046;-60
2023/01/01 11:12:16;;;;;;;45.38;38.15;;;;;;;25.64;36.49;96292.00;4966521;28;20129;-61
2023/01/01 11:14:43;;;;;;;39.78;33.83;;;;;;;25.80;39.93;96301.03;5012125;28;20160;-60
2023/01/01 11:17:08;;;;;;;39.75;33.50;;;;;;;25.94;39.67;96289.13;4982241;28;20042;-60
2023/01/01 11:19:39;;;;;;;39.25;33.72;;;;;;;25.89;39.84;96270.69;4983227;28;20035;-60
2023/01/01 11:22:04;;;;;;;38.30;33.05;;;;;;;25.69;39.72;96244.78;5014790;28;20062;-61
2023/01/01 11:24:31;;;;;;;37.78;32.78;;;;;;;26.11;39.94;96281.66;4986713;28;20867;-60
2023/01/01 11:27:19;;;;;;;40.50;32.75;;;;;;;26.36;39.74;96275.22;5012619;28;20112;-61